Time;durP1;ratioP1;P1;durP2;ratioP2;P2;SDS_P1;SDS_P2;PMS_P1;PMS_P2;Temp;Humidity;BMP_temperature;BMP_pressure;BME280_temperature;BME280_humidity;BME280_pressure;Samples;Min_cycle;Max_cycle;Signal;HPM_P1;HPM_P2
2021/09/07 00:00:21;;;;;;;25.12;12.93;;;;;;;7.91;83.36;95532.50;1697998;83;21002;-59
2021/09/07 00:02:48;;;;;;;27.80;14.05;;;;;;;7.81;83.57;95532.05;1699551;83;21106;-58
2021/09/07 00:05:17;;;;;;;29.35;14.18;;;;;;;7.73;83.77;95526.45;1674473;85;21586;-59
2021/09/07 00:07:44;;;;;;;25.80;13.43;;;;;;;7.65;83.74;95529.11;1670840;85;21466;-59
2021/09/07 00:10:12;;;;;;;23.02;13.58;;;;;;;7.58;83.78;95531.15;1670560;85;21073;-58
2021/09/07 00:12:42;;;;;;;26.15;13.40;;;;;;;7.54;84.22;95523.58;1670956;85;21010;-58
2021/09/07 00:15:12;;;;;;;18.10;12.00;;;;;;;7.55;84.46;95527.25;1639276;86;21891;-58
2021/09/07 00:17:41;;;;;;;20.90;11.65;;;;;;;7.54;84.51;95522.97;1628935;86;21091;-57
2021/09/07 00:20:10;;;;;;;23.27;11.85;;;;;;;7.53;84.56;95520.05;1628637;86;21576;-58
2021/09/07 00:22:37;;;;;;;27.52;12.25;;;;;;;7.52;84.68;95521.23;1620411;87;21106;-58
2021/09/07 00:25:06;;;;;;;17.77;10.98;;;;;;;7.56;84.68;95521.20;1695957;83;20991;-59
2021/09/07 00:27:33;;;;;;;18.87;11.45;;;;;;;7.57;84.26;95518.06;1712718;83;21214;-58
2021/09/07 00:30:00;;;;;;;21.02;11.93;;;;;;;7.56;83.99;95523.33;1707018;83;21568;-58
2021/09/07 00:32:27;;;;;;;17.23;10.50;;;;;;;7.55;83.74;95521.02;1701502;83;21072;-59
2021/09/07 00:34:55;;;;;;;19.92;12.33;;;;;;;7.53;83.49;95521.42;1704237;83;21513;-58
2021/09/07 00:37:22;;;;;;;23.65;11.20;;;;;;;7.50;83.60;95516.77;1712394;83;21433;-58
2021/09/07 00:39:51;;;;;;;20.82;11.80;;;;;;;7.49;83.79;95510.34;1695617;83;21572;-56
2021/09/07 00:42:18;;;;;;;16.75;9.80;;;;;;;7.44;84.00;95510.19;1692527;83;21061;-58
2021/09/07 00:44:45;;;;;;;19.73;9.60;;;;;;;7.46;83.91;95507.03;1699161;83;20982;-58
2021/09/07 00:47:12;;;;;;;16.40;10.43;;;;;;;7.43;83.61;95501.80;1712932;83;20986;-58
2021/09/07 00:49:39;;;;;;;15.98;10.20;;;;;;;7.43;83.37;95510.01;1699019;83;21509;-57
2021/09/07 00:52:07;;;;;;;19.98;10.82;;;;;;;7.39;83.29;95505.17;1695373;83;21526;-57
2021/09/07 00:54:37;;;;;;;15.70;11.00;;;;;;;7.42;83.39;95502.19;1706997;83;21023;-58
2021/09/07 00:57:07;;;;;;;13.98;10.93;;;;;;;7.44;83.55;95506.66;1659892;85;21454;-58
2021/09/07 00:59:35;;;;;;;19.98;11.15;;;;;;;7.43;83.85;95505.11;1694986;83;21447;-58
2021/09/07 01:02:04;;;;;;;13.13;9.90;;;;;;;7.43;84.14;95505.91;1692000;83;20950;-58
2021/09/07 01:04:33;;;;;;;15.40;9.08;;;;;;;7.45;84.14;95503.53;1709245;83;21228;-58
2021/09/07 01:07:02;;;;;;;16.00;9.40;;;;;;;7.45;84.01;95504.11;1695495;83;21110;-58
2021/09/07 01:09:33;;;;;;;18.85;9.53;;;;;;;7.39;83.81;95497.54;1700046;83;21044;-60
2021/09/07 01:12:02;;;;;;;13.38;9.10;;;;;;;7.35;83.75;95497.57;1674394;83;21499;-58
2021/09/07 01:14:33;;;;;;;20.75;11.43;;;;;;;7.32;83.47;95499.76;1696629;82;20943;-58
2021/09/07 01:17:02;;;;;;;;;;;;;;;7.30;83.33;95504.87;1697151;83;21132;-58
2021/09/07 01:19:30;;;;;;;19.10;13.60;;;;;;;7.26;83.31;95502.77;1695729;83;20448;-59
2021/09/07 01:21:57;;;;;;;20.70;10.30;;;;;;;7.18;83.33;95506.74;1678437;85;21011;-58
2021/09/07 01:24:26;;;;;;;16.60;9.98;;;;;;;7.11;83.11;95500.56;1677709;84;21476;-58
2021/09/07 01:26:53;;;;;;;15.60;9.20;;;;;;;7.06;82.89;95504.36;1697073;83;20958;-58
2021/09/07 01:29:21;;;;;;;13.90;10.10;;;;;;;7.02;83.05;95505.75;1704762;83;21413;-59
2021/09/07 01:31:49;;;;;;;15.85;10.13;;;;;;;6.97;83.11;95504.03;1716460;83;20990;-59
2021/09/07 01:34:22;;;;;;;20.40;11.00;;;;;;;6.96;83.31;95499.75;1659228;85;21089;-57
2021/09/07 01:36:49;;;;;;;14.30;10.85;;;;;;;6.99;83.38;95503.03;1632767;86;21078;-58
2021/09/07 01:39:18;;;;;;;20.35;11.20;;;;;;;6.98;83.26;95497.38;1638319;86;21000;-58
2021/09/07 01:41:46;;;;;;;18.73;10.45;;;;;;;6.94;83.57;95491.17;1637502;86;21175;-57
2021/09/07 01:44:15;;;;;;;18.32;11.10;;;;;;;6.88;83.89;95487.34;1688051;83;20959;-58
2021/09/07 01:46:42;;;;;;;23.40;12.70;;;;;;;6.83;83.96;95493.22;1656996;83;21086;-59
2021/09/07 01:49:11;;;;;;;26.82;12.75;;;;;;;6.72;83.92;95493.92;1700510;84;21509;-57
2021/09/07 01:51:39;;;;;;;26.30;13.98;;;;;;;6.57;84.01;95498.74;1672665;83;21105;-58
2021/09/07 01:54:06;;;;;;;27.95;13.55;;;;;;;6.45;84.37;95495.12;1691354;83;21541;-58
2021/09/07 01:56:35;;;;;;;30.70;14.43;;;;;;;6.36;84.66;95496.16;1696901;83;21027;-58
2021/09/07 01:59:04;;;;;;;34.73;14.47;;;;;;;6.31;84.88;95495.83;1689409;83;21490;-58
2021/09/07 02:01:32;;;;;;;31.17;14.23;;;;;;;6.28;85.33;95489.77;1706864;83;20998;-58
2021/09/07 02:04:00;;;;;;;26.37;13.22;;;;;;;6.30;85.78;95495.64;1689066;83;20958;-58
2021/09/07 02:06:28;;;;;;;23.12;13.65;;;;;;;6.32;86.06;95485.84;1701296;83;21113;-58
2021/09/07 02:08:55;;;;;;;21.85;10.78;;;;;;;6.36;85.99;95496.75;1697659;83;20947;-56
2021/09/07 02:11:22;;;;;;;18.27;11.08;;;;;;;6.36;85.96;95489.92;1694947;83;20999;-58
2021/09/07 02:13:50;;;;;;;24.12;11.78;;;;;;;6.38;86.19;95493.82;1703845;83;21164;-59
2021/09/07 02:16:18;;;;;;;20.82;11.75;;;;;;;6.41;86.36;95492.22;1689135;83;21410;-57
2021/09/07 02:18:48;;;;;;;36.70;12.00;;;;;;;6.46;86.26;95497.25;1697620;83;21003;-58
2021/09/07 02:21:15;;;;;;;18.10;10.78;;;;;;;6.46;85.96;95490.41;1693532;83;21042;-58
2021/09/07 02:23:43;;;;;;;17.60;10.98;;;;;;;6.49;85.73;95489.64;1699858;83;21581;-58
2021/09/07 02:26:11;;;;;;;21.17;10.55;;;;;;;6.55;85.41;95490.75;1654196;85;21133;-58
2021/09/07 02:28:40;;;;;;;19.45;10.93;;;;;;;6.56;84.93;95491.70;1634325;86;20974;-58
2021/09/07 02:31:07;;;;;;;16.42;10.40;;;;;;;6.55;84.75;95490.75;1638449;86;21146;-57
2021/09/07 02:33:34;;;;;;;19.15;10.68;;;;;;;6.57;84.85;95493.28;1639733;86;20975;-58
2021/09/07 02:36:00;;;;;;;21.02;10.90;;;;;;;6.57;85.18;95493.28;1640068;86;21090;-58
2021/09/07 02:38:29;;;;;;;23.35;9.65;;;;;;;6.57;85.50;95493.85;1667799;85;21530;-58
2021/09/07 02:41:00;;;;;;;20.17;10.25;;;;;;;6.58;85.53;95489.36;1661929;84;21042;-58
2021/09/07 02:43:27;;;;;;;14.30;10.15;;;;;;;6.59;85.52;95490.13;1671193;84;21138;-58
2021/09/07 02:45:53;;;;;;;15.63;10.10;;;;;;;6.62;85.47;95493.41;1670083;85;21451;-57
2021/09/07 02:48:21;;;;;;;19.75;9.83;;;;;;;6.61;85.35;95491.86;1673935;85;21058;-58
2021/09/07 02:50:48;;;;;;;17.95;9.85;;;;;;;6.55;85.51;95495.61;1673957;85;21549;-58
2021/09/07 02:53:14;;;;;;;16.15;9.90;;;;;;;6.56;85.90;95489.56;1660534;84;21184;-58
2021/09/07 02:55:41;;;;;;;22.95;8.75;;;;;;;6.61;85.81;95485.81;1677564;85;21158;-58
2021/09/07 02:58:12;;;;;;;19.73;10.32;;;;;;;6.68;85.75;95489.08;1680839;85;21014;-57
2021/09/07 03:00:39;;;;;;;21.07;10.72;;;;;;;6.71;85.95;95494.50;1678326;85;21019;-58
2021/09/07 03:03:06;;;;;;;17.92;9.95;;;;;;;6.78;85.79;95493.09;1660844;85;21034;-58
2021/09/07 03:05:32;;;;;;;18.85;9.13;;;;;;;6.83;85.72;95493.22;1673510;84;21427;-58
2021/09/07 03:08:00;;;;;;;14.93;9.25;;;;;;;6.83;85.25;95489.13;1678570;85;21147;-57
2021/09/07 03:10:27;;;;;;;29.23;18.95;;;;;;;6.81;85.08;95495.59;1681487;85;21015;-58
2021/09/07 03:12:55;;;;;;;59.67;29.85;;;;;;;6.78;85.00;95490.94;1652604;84;21054;-57
2021/09/07 03:15:23;;;;;;;41.85;24.72;;;;;;;6.79;85.35;95491.91;1671348;84;20984;-58
2021/09/07 03:17:50;;;;;;;35.40;21.07;;;;;;;6.86;85.37;95497.30;1715052;83;21018;-57
2021/09/07 03:20:17;;;;;;;27.13;18.05;;;;;;;6.93;85.22;95499.20;1695273;83;21217;-58
2021/09/07 03:22:44;;;;;;;53.55;27.65;;;;;;;6.97;84.97;95495.83;1688416;83;21427;-57
2021/09/07 03:25:11;;;;;;;29.52;18.52;;;;;;;7.00;84.73;95493.65;1698887;83;21054;-59
2021/09/07 03:27:39;;;;;;;18.95;13.80;;;;;;;7.02;84.56;95494.02;1663544;85;21027;-58
2021/09/07 03:30:09;;;;;;;21.48;11.57;;;;;;;7.03;84.23;95495.59;1632720;86;21955;-57
2021/09/07 03:32:39;;;;;;;21.35;10.60;;;;;;;7.04;84.27;95493.05;1637977;86;21145;-58
2021/09/07 03:35:09;;;;;;;18.23;9.90;;;;;;;7.02;84.39;95495.38;1623095;87;21596;-58
2021/09/07 03:37:37;;;;;;;18.65;10.95;;;;;;;6.98;84.56;95502.86;1701422;83;21046;-57
2021/09/07 03:40:07;;;;;;;24.98;10.70;;;;;;;6.95;84.75;95488.63;1700414;83;21026;-58
2021/09/07 03:42:34;;;;;;;55.10;14.43;;;;;;;6.94;84.90;95494.70;1694820;83;21063;-58
2021/09/07 03:45:07;;;;;;;15.40;9.58;;;;;;;6.95;85.15;95492.73;1703817;82;21489;-58
2021/09/07 03:47:35;;;;;;;23.32;10.32;;;;;;;6.95;85.19;95484.52;1703953;83;21011;-59
2021/09/07 03:50:05;;;;;;;19.70;10.80;;;;;;;6.95;85.40;95488.05;1704574;83;20978;-58
2021/09/07 03:52:34;;;;;;;21.70;10.88;;;;;;;6.98;85.39;95489.97;1698104;83;20970;-59
2021/09/07 03:55:01;;;;;;;12.18;9.68;;;;;;;7.01;85.81;95486.99;1657731;85;21005;-57
2021/09/07 03:57:30;;;;;;;18.85;10.70;;;;;;;7.08;85.67;95488.31;1655125;86;21086;-58
2021/09/07 03:59:57;;;;;;;14.80;9.75;;;;;;;7.10;85.81;95487.49;1631312;86;21019;-57
2021/09/07 04:02:25;;;;;;;22.22;9.68;;;;;;;7.18;85.75;95482.12;1695973;83;22482;-57
2021/09/07 04:04:53;;;;;;;24.25;11.22;;;;;;;7.24;85.48;95483.24;1700650;83;21015;-59
2021/09/07 04:07:21;;;;;;;17.67;10.53;;;;;;;7.25;85.30;95482.05;1692757;83;21023;-58
2021/09/07 04:09:48;;;;;;;16.37;10.00;;;;;;;7.28;85.23;95481.81;1700996;83;21783;-58
2021/09/07 04:12:14;;;;;;;24.15;10.20;;;;;;;7.29;85.40;95482.79;1686079;84;20974;-60
2021/09/07 04:14:42;;;;;;;26.57;10.68;;;;;;;7.32;85.34;95486.07;1632395;86;20994;-57
2021/09/07 04:17:09;;;;;;;24.07;10.65;;;;;;;7.34;85.25;95485.06;1624266;86;21070;-57
2021/09/07 04:19:37;;;;;;;14.30;9.20;;;;;;;7.36;85.16;95486.05;1625273;86;21041;-58
2021/09/07 04:22:06;;;;;;;14.20;8.28;;;;;;;7.36;85.10;95489.54;1631154;86;21167;-60
2021/09/07 04:24:33;;;;;;;25.12;9.80;;;;;;;7.41;85.08;95489.69;1622654;86;21102;-60
2021/09/07 04:26:59;;;;;;;23.75;12.35;;;;;;;7.42;85.24;95481.09;1706423;83;21014;-59
2021/09/07 04:29:26;;;;;;;15.13;9.18;;;;;;;7.48;85.13;95483.55;1710898;84;21411;-58
2021/09/07 04:31:53;;;;;;;16.12;9.43;;;;;;;7.53;84.86;95483.09;1712791;83;20963;-59
2021/09/07 04:34:19;;;;;;;24.70;9.43;;;;;;;7.53;84.80;95488.56;1708886;83;21310;-59
2021/09/07 04:36:46;;;;;;;14.38;9.28;;;;;;;7.53;84.88;95491.30;1701797;83;21423;-59
2021/09/07 04:39:12;;;;;;;23.60;10.25;;;;;;;7.54;85.12;95492.84;1703680;83;20963;-58
2021/09/07 04:41:39;;;;;;;21.85;10.53;;;;;;;7.58;85.35;95487.34;1711725;83;21019;-60
2021/09/07 04:44:06;;;;;;;21.52;8.80;;;;;;;7.62;85.58;95492.97;1702510;83;21053;-60
2021/09/07 04:46:34;;;;;;;18.62;9.48;;;;;;;7.71;85.56;95490.49;1701781;83;21922;-58
2021/09/07 04:49:01;;;;;;;19.62;9.85;;;;;;;7.73;85.27;95497.70;1692083;83;20968;-58
2021/09/07 04:51:28;;;;;;;13.28;8.35;;;;;;;7.78;85.40;95500.59;1695600;83;21026;-58
2021/09/07 04:53:57;;;;;;;18.70;10.30;;;;;;;7.85;85.35;95497.77;1705798;83;21101;-58
2021/09/07 04:56:24;;;;;;;17.23;9.70;;;;;;;7.90;85.14;95499.44;1669974;84;21088;-58
2021/09/07 04:58:51;;;;;;;21.75;10.18;;;;;;;7.93;85.33;95495.11;1637231;86;22004;-57
2021/09/07 05:01:19;;;;;;;16.70;8.58;;;;;;;8.02;85.61;95492.05;1622874;86;21093;-58
2021/09/07 05:03:45;;;;;;;15.65;8.20;;;;;;;8.16;85.32;95497.34;1625383;86;21097;-59
2021/09/07 05:06:13;;;;;;;12.13;7.90;;;;;;;8.23;84.72;95497.25;1645300;86;21121;-58
2021/09/07 05:08:42;;;;;;;25.17;10.03;;;;;;;8.26;84.48;95493.68;1630528;86;21600;-60
2021/09/07 05:11:10;;;;;;;22.27;9.90;;;;;;;8.23;84.24;95497.86;1645063;86;21126;-59
2021/09/07 05:13:38;;;;;;;15.70;9.98;;;;;;;8.24;84.14;95501.55;1647573;86;21144;-58
2021/09/07 05:16:05;;;;;;;18.20;10.93;;;;;;;8.25;84.05;95503.09;1645990;86;21625;-58
2021/09/07 05:18:32;;;;;;;17.98;10.65;;;;;;;8.28;84.12;95500.89;1714830;83;21066;-57
2021/09/07 05:20:58;;;;;;;12.95;9.90;;;;;;;8.38;84.10;95504.09;1707714;83;21029;-62
2021/09/07 05:23:25;;;;;;;17.62;9.75;;;;;;;8.47;84.24;95502.95;1696944;83;21134;-60
2021/09/07 05:25:53;;;;;;;22.82;10.45;;;;;;;8.54;84.11;95499.33;1696905;83;20996;-59
2021/09/07 05:28:20;;;;;;;18.82;9.33;;;;;;;8.61;84.19;95501.38;1655466;85;21084;-60
2021/09/07 05:30:46;;;;;;;17.17;8.88;;;;;;;8.67;83.78;95504.42;1628763;86;21028;-58
2021/09/07 05:33:13;;;;;;;25.57;9.00;;;;;;;8.67;83.31;95498.36;1630257;86;21030;-62
2021/09/07 05:35:40;;;;;;;15.80;8.13;;;;;;;8.70;83.17;95503.00;1607720;86;21165;-62
2021/09/07 05:38:07;;;;;;;18.12;7.80;;;;;;;8.73;83.23;95504.13;1688243;83;21052;-62
2021/09/07 05:40:34;;;;;;;11.93;7.83;;;;;;;8.81;83.20;95507.70;1681298;83;21012;-60
2021/09/07 05:43:01;;;;;;;11.65;7.67;;;;;;;8.95;83.06;95507.48;1686949;83;21113;-60
2021/09/07 05:45:28;;;;;;;14.78;6.67;;;;;;;9.06;82.56;95501.22;1688887;83;21099;-62
2021/09/07 05:47:55;;;;;;;11.20;7.95;;;;;;;9.14;82.21;95500.68;1678629;83;22415;-60
2021/09/07 05:50:22;;;;;;;11.28;7.20;;;;;;;9.24;82.01;95495.58;1695622;83;21015;-61
2021/09/07 05:52:49;;;;;;;14.87;6.95;;;;;;;9.35;81.53;95498.13;1668770;83;21084;-58
2021/09/07 05:55:17;;;;;;;13.93;8.13;;;;;;;9.39;81.13;95505.69;1677601;83;21637;-62
2021/09/07 05:57:44;;;;;;;9.53;7.40;;;;;;;9.40;80.79;95499.03;1684281;83;21045;-64
2021/09/07 06:00:13;;;;;;;6.90;6.17;;;;;;;9.45;80.98;95504.03;1683128;83;21124;-62
2021/09/07 06:02:41;;;;;;;13.05;7.83;;;;;;;9.49;80.81;95505.52;1680223;83;21072;-61
2021/09/07 06:05:09;;;;;;;13.28;7.75;;;;;;;9.51;80.62;95500.96;1705238;82;21083;-59
2021/09/07 06:07:36;;;;;;;14.40;8.25;;;;;;;9.60;80.69;95503.94;1680579;82;21482;-61
2021/09/07 06:10:04;;;;;;;11.03;7.90;;;;;;;9.68;80.52;95495.72;1673354;83;21137;-60
2021/09/07 06:12:31;;;;;;;11.97;8.23;;;;;;;9.76;80.23;95505.39;1667945;83;21154;-63
2021/09/07 06:14:58;;;;;;;17.90;7.83;;;;;;;9.77;80.04;95505.56;1684627;83;21173;-62
2021/09/07 06:17:26;;;;;;;23.07;8.58;;;;;;;9.81;80.01;95500.77;1694784;83;21560;-62
2021/09/07 06:19:55;;;;;;;12.05;7.90;;;;;;;9.92;80.15;95501.30;1678407;83;21080;-64
2021/09/07 06:22:22;;;;;;;17.37;7.10;;;;;;;10.03;79.75;95501.90;1676176;83;21969;-64
2021/09/07 06:24:52;;;;;;;8.05;6.87;;;;;;;10.06;79.46;95498.30;1698562;83;21115;-61
2021/09/07 06:27:19;;;;;;;13.83;7.05;;;;;;;10.08;79.14;95502.18;1685154;83;21167;-63
2021/09/07 06:29:46;;;;;;;12.00;6.92;;;;;;;10.09;79.08;95501.56;1688068;83;21018;-61
2021/09/07 06:32:17;;;;;;;9.85;7.87;;;;;;;10.13;78.99;95506.41;1706978;83;21104;-61
2021/09/07 06:34:44;;;;;;;15.40;6.97;;;;;;;10.21;79.07;95503.66;1709510;83;21067;-60
2021/09/07 06:37:13;;;;;;;12.73;7.15;;;;;;;10.32;79.02;95509.72;1695728;83;22212;-62
2021/09/07 06:39:42;;;;;;;17.17;7.22;;;;;;;10.40;78.69;95505.59;1677625;83;20998;-59
2021/09/07 06:42:10;;;;;;;9.53;7.20;;;;;;;10.44;78.48;95511.20;1671616;84;21143;-61
2021/09/07 06:44:37;;;;;;;12.68;6.87;;;;;;;10.51;78.16;95504.15;1660202;84;21664;-60
2021/09/07 06:47:04;;;;;;;15.43;6.60;;;;;;;10.61;77.70;95508.65;1652720;84;21099;-58
2021/09/07 06:49:33;;;;;;;17.27;7.58;;;;;;;10.67;77.70;95509.67;1657935;84;21176;-64
2021/09/07 06:51:59;;;;;;;11.50;6.70;;;;;;;10.74;77.69;95506.16;1639156;86;20982;-61
2021/09/07 06:54:26;;;;;;;10.35;7.33;;;;;;;10.84;77.25;95507.11;1635145;85;21085;-59
2021/09/07 06:56:55;;;;;;;16.75;7.65;;;;;;;10.84;77.07;95506.48;1632617;85;21173;-60
2021/09/07 06:59:22;;;;;;;8.88;6.65;;;;;;;10.88;77.05;95512.70;1620548;84;21108;-59
2021/09/07 07:01:49;;;;;;;20.97;7.15;;;;;;;10.98;76.87;95504.77;1621700;86;21138;-61
2021/09/07 07:04:17;;;;;;;8.65;6.58;;;;;;;11.07;76.88;95502.20;1629443;86;21046;-56
2021/09/07 07:06:44;;;;;;;20.35;6.92;;;;;;;11.17;76.59;95499.00;1638272;85;20999;-57
2021/09/07 07:09:13;;;;;;;18.17;7.47;;;;;;;11.21;76.50;95497.69;1634303;85;21536;-59
2021/09/07 07:11:40;;;;;;;22.35;7.53;;;;;;;11.30;76.39;95501.98;1634011;85;22017;-59
2021/09/07 07:14:06;;;;;;;16.32;7.15;;;;;;;11.43;76.01;95501.45;1625937;86;21138;-64
2021/09/07 07:16:35;;;;;;;12.18;6.78;;;;;;;11.52;75.98;95498.08;1611521;86;21051;-60
2021/09/07 07:19:04;;;;;;;13.93;6.65;;;;;;;11.64;75.87;95498.16;1629152;86;20983;-61
2021/09/07 07:21:33;;;;;;;15.38;7.45;;;;;;;11.76;75.46;95494.68;1629536;86;21550;-62
2021/09/07 07:24:00;;;;;;;18.05;8.08;;;;;;;11.88;74.79;95495.30;1636660;86;21080;-58
2021/09/07 07:26:27;;;;;;;15.48;7.65;;;;;;;11.97;74.57;95497.42;1641964;86;21111;-63
2021/09/07 07:28:55;;;;;;;13.55;7.22;;;;;;;12.06;74.28;95502.47;1625282;86;21081;-62
2021/09/07 07:31:22;;;;;;;13.60;7.03;;;;;;;12.16;73.93;95493.12;1627572;86;21089;-64
2021/09/07 07:33:49;;;;;;;16.40;7.87;;;;;;;12.26;73.34;95498.91;1621942;86;21531;-61
2021/09/07 07:36:17;;;;;;;15.75;7.35;;;;;;;12.36;73.17;95493.70;1619836;86;21164;-60
2021/09/07 07:38:44;;;;;;;9.10;7.17;;;;;;;12.51;72.94;95491.27;1633605;85;21843;-58
2021/09/07 07:41:10;;;;;;;10.13;6.58;;;;;;;12.60;72.63;95488.02;1629838;86;21158;-61
2021/09/07 07:43:44;;;;;;;13.03;6.50;;;;;;;12.66;72.35;95487.02;1681120;83;21171;-62
2021/09/07 07:46:06;;;;;;;10.48;6.15;;;;;;;12.74;72.38;95492.47;1679183;83;21496;-60
2021/09/07 07:48:33;;;;;;;8.68;6.35;;;;;;;12.87;71.85;95489.72;1691352;83;20995;-60
2021/09/07 07:51:01;;;;;;;18.23;7.15;;;;;;;13.02;71.52;95485.29;1692762;83;21240;-63
2021/09/07 07:53:28;;;;;;;7.33;6.05;;;;;;;13.18;71.00;95492.06;1684281;83;20996;-70
2021/09/07 07:55:57;;;;;;;13.22;6.53;;;;;;;13.30;70.40;95488.50;1685112;83;21110;-64
2021/09/07 07:58:23;;;;;;;11.97;7.20;;;;;;;13.42;70.22;95483.56;1662170;83;21543;-69
2021/09/07 08:00:51;;;;;;;12.70;7.50;;;;;;;13.54;70.09;95475.81;1690095;83;21297;-64
2021/09/07 08:03:19;;;;;;;12.05;6.60;;;;;;;13.69;69.93;95473.50;1696425;83;21201;-57
2021/09/07 08:05:46;;;;;;;13.43;9.38;;;;;;;13.85;69.79;95475.30;1686324;82;21081;-61
2021/09/07 08:08:13;;;;;;;16.60;10.08;;;;;;;14.03;69.71;95480.95;1691286;83;21034;-67
2021/09/07 08:10:40;;;;;;;14.03;7.08;;;;;;;14.20;69.44;95472.64;1693004;82;21094;-66
2021/09/07 08:13:08;;;;;;;11.15;7.25;;;;;;;14.39;69.17;95473.66;1704098;83;21105;-65
2021/09/07 08:15:36;;;;;;;10.13;6.42;;;;;;;14.58;68.53;95473.30;1692360;83;21113;-65
2021/09/07 08:18:04;;;;;;;10.78;5.78;;;;;;;14.77;68.23;95467.98;1668247;83;21081;-64
2021/09/07 08:20:33;;;;;;;12.13;6.47;;;;;;;14.92;67.83;95469.56;1700850;83;21069;-68
2021/09/07 08:23:02;;;;;;;10.82;6.30;;;;;;;15.01;67.34;95470.36;1677717;83;21006;-67
2021/09/07 08:25:30;;;;;;;9.88;6.58;;;;;;;15.12;67.40;95463.00;1652258;84;21117;-66
2021/09/07 08:27:57;;;;;;;12.98;7.17;;;;;;;15.25;66.79;95457.50;1654182;84;22682;-65
2021/09/07 08:30:24;;;;;;;17.82;8.18;;;;;;;15.39;66.61;95461.70;1611157;86;21081;-66
2021/09/07 08:32:52;;;;;;;22.60;7.70;;;;;;;15.53;66.72;95455.55;1640847;86;21096;-68
2021/09/07 08:35:21;;;;;;;13.35;7.17;;;;;;;15.71;66.07;95460.48;1616195;86;21114;-63
2021/09/07 08:37:48;;;;;;;27.85;10.28;;;;;;;15.90;65.47;95459.86;1636402;86;21022;-66
2021/09/07 08:40:16;;;;;;;16.15;7.47;;;;;;;16.04;64.78;95450.27;1642048;85;21156;-66
2021/09/07 08:42:43;;;;;;;12.75;8.13;;;;;;;16.16;64.17;95456.28;1641265;85;21103;-65
2021/09/07 08:45:14;;;;;;;18.00;7.60;;;;;;;16.25;63.76;95450.69;1642484;86;21075;-63
2021/09/07 08:47:46;;;;;;;13.65;7.42;;;;;;;16.34;63.25;95448.69;1646417;86;21105;-67
2021/09/07 08:50:14;;;;;;;22.27;7.22;;;;;;;16.45;63.30;95444.81;1644452;86;21590;-65
2021/09/07 08:52:41;;;;;;;17.10;7.33;;;;;;;16.58;62.74;95436.27;1639815;86;21131;-64
2021/09/07 08:55:09;;;;;;;13.88;6.87;;;;;;;16.70;62.49;95436.06;1635893;86;21136;-62
2021/09/07 08:57:36;;;;;;;12.73;6.58;;;;;;;16.87;61.91;95440.64;1631260;85;21085;-62
2021/09/07 09:00:06;;;;;;;9.73;6.15;;;;;;;16.99;60.93;95427.12;1646270;85;21357;-64
2021/09/07 09:02:41;;;;;;;8.95;6.37;;;;;;;17.09;61.09;95437.71;1617337;86;21145;-65
2021/09/07 09:05:10;;;;;;;11.03;5.70;;;;;;;17.25;60.79;95439.34;1613142;86;21170;-62
2021/09/07 09:07:37;;;;;;;7.20;5.25;;;;;;;17.41;60.85;95433.36;1623735;85;21174;-65
2021/09/07 09:10:06;;;;;;;7.78;5.65;;;;;;;17.60;59.60;95432.77;1636604;86;21896;-60
2021/09/07 09:12:39;;;;;;;12.75;5.58;;;;;;;17.77;59.09;95434.47;1623973;86;21666;-69
2021/09/07 09:15:17;;;;;;;10.48;5.35;;;;;;;17.91;59.50;95432.34;1629713;86;21581;-66
2021/09/07 09:17:45;;;;;;;15.45;7.15;;;;;;;18.09;58.75;95421.03;1643283;86;21504;-65
2021/09/07 09:20:16;;;;;;;11.93;6.22;;;;;;;18.26;57.82;95428.45;1626259;86;21147;-67
2021/09/07 09:22:48;;;;;;;9.55;6.12;;;;;;;18.42;55.57;95427.36;1622483;86;21080;-64
2021/09/07 09:25:28;;;;;;;9.15;6.17;;;;;;;18.59;54.71;95425.63;1616899;85;21120;-62
2021/09/07 09:28:12;;;;;;;8.83;5.83;;;;;;;18.74;54.64;95426.38;1630538;85;21133;-65
2021/09/07 09:30:42;;;;;;;8.70;5.53;;;;;;;18.94;54.03;95425.64;1624250;86;21150;-69
2021/09/07 09:33:21;;;;;;;10.23;5.30;;;;;;;19.16;53.60;95419.02;1615208;86;21484;-64
2021/09/07 09:35:57;;;;;;;7.92;5.72;;;;;;;19.38;53.28;95420.09;1636466;86;21530;-63
2021/09/07 09:38:32;;;;;;;7.53;5.85;;;;;;;19.68;52.47;95414.52;1650196;86;21049;-67
2021/09/07 09:41:03;;;;;;;8.48;5.50;;;;;;;19.98;51.61;95417.28;1640180;85;21007;-62
2021/09/07 09:43:44;;;;;;;10.55;7.00;;;;;;;20.24;51.10;95422.26;1622505;86;21993;-62
2021/09/07 09:46:23;;;;;;;6.85;4.78;;;;;;;20.53;51.08;95413.65;1629301;85;21602;-62
2021/09/07 09:48:55;;;;;;;7.87;4.90;;;;;;;20.77;49.27;95415.48;1650601;85;21151;-64
2021/09/07 09:51:23;;;;;;;7.92;4.92;;;;;;;20.98;48.58;95411.34;1648606;84;21879;-67
2021/09/07 09:53:50;;;;;;;12.10;6.05;;;;;;;21.18;47.71;95414.80;1699964;83;21521;-62
2021/09/07 09:56:17;;;;;;;5.92;4.45;;;;;;;21.40;48.16;95408.53;1688955;83;21138;-65
2021/09/07 09:58:46;;;;;;;6.58;4.72;;;;;;;21.71;45.54;95414.06;1684596;83;21676;-66
2021/09/07 10:01:17;;;;;;;10.55;4.78;;;;;;;21.96;42.92;95404.09;1692895;83;21553;-63
2021/09/07 10:03:44;;;;;;;9.53;4.85;;;;;;;22.20;41.79;95401.59;1685958;83;21037;-65
2021/09/07 10:06:12;;;;;;;8.95;4.78;;;;;;;22.49;41.33;95405.37;1684727;83;22304;-65
2021/09/07 10:08:40;;;;;;;6.58;4.62;;;;;;;22.83;41.35;95399.25;1696184;83;21663;-66
2021/09/07 10:11:13;;;;;;;7.33;3.95;;;;;;;23.28;42.29;95401.39;1666064;83;21046;-65
2021/09/07 10:13:46;;;;;;;8.90;4.55;;;;;;;23.85;40.54;95393.83;1688170;83;21791;-68
2021/09/07 10:16:34;;;;;;;9.60;4.37;;;;;;;24.40;38.90;95397.73;1686614;83;21074;-67
2021/09/07 10:19:11;;;;;;;10.53;4.45;;;;;;;24.95;37.46;95394.52;1680559;83;21028;-68
2021/09/07 10:24:18;;;;;;;5.10;3.75;;;;;;;25.86;35.82;95390.51;1697249;83;21063;-67
2021/09/07 10:26:50;;;;;;;10.03;4.90;;;;;;;26.24;35.03;95390.64;1694167;83;21168;-68
2021/09/07 10:29:33;;;;;;;7.92;3.75;;;;;;;26.51;34.39;95386.03;1665725;85;21057;-66
2021/09/07 10:32:00;;;;;;;18.75;4.80;;;;;;;26.74;33.41;95392.88;1686441;83;21530;-66
2021/09/07 10:34:29;;;;;;;7.55;4.10;;;;;;;27.00;32.63;95390.80;1694958;83;21146;-64
2021/09/07 10:37:10;;;;;;;4.90;3.62;;;;;;;27.33;31.82;95386.76;1690223;83;21052;-64
2021/09/07 10:39:41;;;;;;;5.70;3.60;;;;;;;27.74;30.92;95381.36;1696655;82;21084;-64
2021/09/07 10:42:12;;;;;;;5.37;3.75;;;;;;;28.24;30.90;95380.42;1696082;83;22253;-66
2021/09/07 10:44:42;;;;;;;6.67;3.00;;;;;;;28.76;30.63;95382.37;1698851;83;21063;-67
2021/09/07 10:47:14;;;;;;;6.72;3.92;;;;;;;29.09;28.42;95384.39;1629394;86;21865;-66
2021/09/07 10:49:54;;;;;;;7.62;4.25;;;;;;;29.13;28.09;95374.91;1629974;86;21095;-68
2021/09/07 10:52:26;;;;;;;7.95;3.83;;;;;;;29.12;29.05;95379.05;1634636;86;22213;-72
2021/09/07 10:55:09;;;;;;;6.05;3.35;;;;;;;29.31;28.30;95377.50;1644779;86;21095;-67
2021/09/07 10:57:41;;;;;;;;;;;;;;;29.55;27.79;95379.23;1697174;83;21061;-67
2021/09/07 11:00:25;;;;;;;5.58;4.53;;;;;;;29.75;27.92;95379.83;1680306;83;21166;-64
2021/09/07 11:02:55;;;;;;;4.28;3.55;;;;;;;30.00;27.47;95376.78;1694204;82;21581;-67
2021/09/07 11:05:41;;;;;;;9.10;4.00;;;;;;;30.36;27.13;95380.35;1702052;82;21956;-71
2021/09/07 11:08:21;;;;;;;4.85;3.10;;;;;;;30.59;27.19;95374.78;1678441;83;21069;-63
2021/09/07 11:10:52;;;;;;;4.20;3.08;;;;;;;30.83;26.93;95379.30;1680844;83;21082;-69
2021/09/07 11:13:26;;;;;;;5.95;3.70;;;;;;;31.00;25.87;95379.52;1689602;83;21210;-69
2021/09/07 11:16:03;;;;;;;8.45;3.85;;;;;;;31.07;26.33;95374.50;1689642;83;21042;-67
2021/09/07 11:18:34;;;;;;;10.80;4.22;;;;;;;31.37;26.03;95373.77;1708097;83;21013;-66
2021/09/07 11:21:05;;;;;;;14.68;4.00;;;;;;;31.45;25.33;95366.75;1682807;83;21548;-63
2021/09/07 11:23:34;;;;;;;11.75;7.78;;;;;;;31.60;25.26;95365.33;1703887;83;26734;-61
2021/09/07 11:26:11;;;;;;;6.83;6.08;;;;;;;31.87;25.18;95360.77;1680828;83;21606;-74
2021/09/07 11:28:45;;;;;;;8.08;4.90;;;;;;;32.00;25.55;95357.02;1693770;83;21081;-66
2021/09/07 11:31:12;;;;;;;11.88;6.22;;;;;;;32.25;24.66;95352.89;1689600;82;21501;-64
2021/09/07 11:33:40;;;;;;;8.53;7.10;;;;;;;32.65;24.41;95356.49;1691077;83;21253;-67
2021/09/07 11:36:13;;;;;;;6.42;5.62;;;;;;;32.99;24.71;95358.86;1690475;83;21841;-69
2021/09/07 11:38:45;;;;;;;8.23;5.12;;;;;;;33.39;22.93;95355.94;1693521;83;21482;-70